Bavaro, Dominican Republic
Current Conditions -  °F | °C
As of 8:00 PM on Tuesday 25 Nov 2014 (Local Time) from MDPC Reporting Station
Broken Clouds Broken Clouds  
Wind Chill: 26°   Ceiling: 8000
Heat Index: 28°   Visibility: 6mi
Dew Point: 23°   Wind: 12mph
Humidity: 83%   Direction: 170°S
Pressure: 30"   Gusts: NA
Location:  18.72°N, 68.45°W
Report Text: MDPC 260000Z 17010KT 9999 FEW018CB SCT019 BKN080 26/23 Q1016 CB/SE/S
Loading
Personal Weather Stations






























Interactive Weather Map New forecast layout! Learn more

10-Day Weather Forecast

Advertisements
Track Severe Weather on mobile